Time;durP1;ratioP1;P1;durP2;ratioP2;P2;SDS_P1;SDS_P2;PMS_P1;PMS_P2;Temp;Humidity;BMP_temperature;BMP_pressure;BME280_temperature;BME280_humidity;BME280_pressure;Samples;Min_cycle;Max_cycle;Signal;HPM_P1;HPM_P2
2022/04/13 00:00:34;;;;;;;3.78;1.50;;;14.50;77.20;;;;;;5012167;28;20052;-87
2022/04/13 00:03:02;;;;;;;2.55;0.98;;;14.50;77.20;;;;;;5012192;28;20049;-86
2022/04/13 00:05:30;;;;;;;3.28;1.30;;;14.40;77.10;;;;;;4964660;28;20498;-86
2022/04/13 00:07:58;;;;;;;3.17;0.82;;;14.50;77.30;;;;;;4995422;28;20046;-87
2022/04/13 00:10:25;;;;;;;2.55;1.10;;;14.40;77.30;;;;;;5011560;28;20112;-86
2022/04/13 00:12:51;;;;;;;2.85;0.98;;;14.40;77.40;;;;;;4995174;28;20066;-87
2022/04/13 00:15:19;;;;;;;3.58;0.90;;;14.30;77.40;;;;;;5013759;28;20060;-86
2022/04/13 00:17:46;;;;;;;2.97;0.90;;;14.30;77.50;;;;;;5015442;28;20063;-86
2022/04/13 00:20:13;;;;;;;2.40;1.00;;;14.30;77.70;;;;;;4999519;28;20069;-87
2022/04/13 00:22:40;;;;;;;3.92;0.88;;;14.30;77.80;;;;;;5010336;28;20046;-87
2022/04/13 00:25:07;;;;;;;3.22;0.77;;;14.20;77.80;;;;;;5012161;28;20459;-86
2022/04/13 00:27:34;;;;;;;2.65;0.77;;;14.10;77.90;;;;;;5013158;28;20045;-86
2022/04/13 00:30:01;;;;;;;2.25;0.90;;;14.10;77.90;;;;;;4998797;28;20080;-87
2022/04/13 00:32:29;;;;;;;2.90;0.77;;;14.10;78.00;;;;;;5015367;28;20112;-87
2022/04/13 00:34:57;;;;;;;2.97;1.08;;;14.00;78.00;;;;;;4998953;28;20073;-86
2022/04/13 00:37:24;;;;;;;3.97;0.68;;;14.00;78.10;;;;;;5001349;28;20050;-87
2022/04/13 00:39:51;;;;;;;1.98;0.70;;;14.00;78.10;;;;;;4994288;28;20062;-87
2022/04/13 00:42:18;;;;;;;3.53;0.88;;;13.90;78.10;;;;;;5013339;28;20053;-87
2022/04/13 00:44:48;;;;;;;2.88;0.90;;;13.90;78.20;;;;;;5012134;28;20046;-86
2022/04/13 00:47:15;;;;;;;2.15;0.68;;;13.90;78.30;;;;;;5008622;28;20077;-86
2022/04/13 00:49:42;;;;;;;2.70;0.75;;;13.90;78.20;;;;;;4999245;28;20050;-86
2022/04/13 00:52:12;;;;;;;2.20;0.98;;;13.90;78.20;;;;;;5013663;28;20088;-87
2022/04/13 00:54:43;;;;;;;2.80;1.35;;;13.90;78.30;;;;;;5011675;28;20047;-87
2022/04/13 00:57:11;;;;;;;2.55;1.00;;;13.90;78.30;;;;;;4996559;28;20054;-86
2022/04/13 00:59:39;;;;;;;1.83;0.90;;;13.90;78.30;;;;;;4998568;28;20069;-86
2022/04/13 01:02:08;;;;;;;1.83;0.90;;;13.80;78.40;;;;;;4998875;28;20132;-86
2022/04/13 01:04:36;;;;;;;2.15;0.50;;;13.80;78.50;;;;;;5014568;28;20045;-87
2022/04/13 01:07:07;;;;;;;3.55;1.02;;;13.80;78.40;;;;;;5014826;28;20438;-86
2022/04/13 01:09:35;;;;;;;8.20;0.90;;;13.80;78.50;;;;;;4997313;28;20056;-85
2022/04/13 01:12:03;;;;;;;3.90;0.80;;;13.70;78.50;;;;;;4998453;28;20042;-86
2022/04/13 01:14:30;;;;;;;1.90;0.70;;;13.70;78.60;;;;;;5011136;28;20042;-86
2022/04/13 01:16:59;;;;;;;1.60;0.77;;;13.70;78.60;;;;;;5007388;28;20125;-86
2022/04/13 01:19:27;;;;;;;4.55;1.08;;;13.60;78.70;;;;;;5014085;28;20053;-86
2022/04/13 01:21:59;;;;;;;3.72;1.25;;;13.60;78.80;;;;;;5011467;28;20409;-87
2022/04/13 01:24:26;;;;;;;2.10;0.63;;;13.60;79.00;;;;;;5004056;28;20050;-87
2022/04/13 01:26:53;;;;;;;4.38;0.88;;;13.50;79.00;;;;;;4997933;28;20791;-86
2022/04/13 01:29:20;;;;;;;2.63;0.90;;;13.50;79.10;;;;;;5014333;28;20104;-87
2022/04/13 01:31:49;;;;;;;3.05;0.80;;;13.40;79.20;;;;;;5014251;28;20046;-87
2022/04/13 01:34:16;;;;;;;1.73;0.80;;;13.40;79.30;;;;;;5013673;28;20050;-86
2022/04/13 01:36:43;;;;;;;3.45;0.68;;;13.30;79.30;;;;;;4998131;28;20096;-87
2022/04/13 01:39:10;;;;;;;5.50;0.95;;;13.30;79.50;;;;;;5014331;28;20049;-87
2022/04/13 01:41:37;;;;;;;3.13;0.80;;;13.30;79.60;;;;;;4998293;28;20414;-86
2022/04/13 01:44:05;;;;;;;2.72;0.77;;;13.30;79.60;;;;;;4997898;28;20145;-87
2022/04/13 01:46:31;;;;;;;2.28;0.80;;;13.20;79.70;;;;;;4994728;28;20038;-87
2022/04/13 01:48:58;;;;;;;2.80;0.75;;;13.20;79.80;;;;;;4992935;28;20042;-86
2022/04/13 01:51:25;;;;;;;3.55;0.82;;;13.10;79.80;;;;;;5012774;28;20136;-87
2022/04/13 01:53:52;;;;;;;2.20;0.85;;;13.10;79.90;;;;;;5009198;28;20042;-86
2022/04/13 01:56:19;;;;;;;3.85;1.05;;;13.10;79.90;;;;;;5014022;28;20088;-87
2022/04/13 01:58:46;;;;;;;2.75;0.82;;;13.10;80.00;;;;;;5013521;28;20050;-86
2022/04/13 02:01:13;;;;;;;2.72;1.15;;;13.10;80.10;;;;;;5013307;28;20050;-87
2022/04/13 02:03:40;;;;;;;2.92;0.80;;;13.00;80.10;;;;;;5014679;28;20518;-87
2022/04/13 02:06:07;;;;;;;3.10;0.80;;;13.00;80.20;;;;;;5013396;28;20050;-86
2022/04/13 02:08:35;;;;;;;2.78;0.88;;;13.00;80.20;;;;;;5013856;28;20383;-87
2022/04/13 02:11:03;;;;;;;1.92;0.68;;;13.00;80.30;;;;;;5013643;28;20061;-86
2022/04/13 02:13:30;;;;;;;1.85;0.65;;;12.90;80.30;;;;;;5013589;28;20490;-85
2022/04/13 02:15:57;;;;;;;1.38;0.65;;;12.90;80.30;;;;;;5013445;28;20145;-86
2022/04/13 02:18:24;;;;;;;5.72;1.00;;;12.90;80.40;;;;;;5013766;28;20418;-87
2022/04/13 02:20:51;;;;;;;2.60;0.80;;;12.90;80.40;;;;;;4997004;28;20046;-86
2022/04/13 02:23:18;;;;;;;1.60;0.80;;;12.90;80.40;;;;;;5013460;28;20069;-86
2022/04/13 02:25:45;;;;;;;2.33;0.63;;;12.80;80.50;;;;;;5013411;28;20465;-86
2022/04/13 02:28:12;;;;;;;3.90;0.82;;;12.80;80.50;;;;;;4997185;28;20073;-86
2022/04/13 02:30:39;;;;;;;3.78;1.00;;;12.80;80.50;;;;;;4994188;28;20469;-86
2022/04/13 02:33:12;;;;;;;;;;;12.80;80.50;;;;;;4984593;28;20034;-86
2022/04/13 02:35:39;;;;;;;1.65;0.57;;;12.80;80.60;;;;;;5009360;28;19956;-86
2022/04/13 02:38:06;;;;;;;2.78;0.70;;;12.70;80.60;;;;;;4994863;28;20046;-86
2022/04/13 02:40:33;;;;;;;3.10;0.60;;;12.80;80.60;;;;;;4984602;28;20098;-86
2022/04/13 02:43:00;;;;;;;2.03;0.50;;;12.80;80.50;;;;;;5000454;28;20502;-86
2022/04/13 02:45:28;;;;;;;1.75;0.52;;;12.90;80.40;;;;;;5013188;28;20042;-86
2022/04/13 02:47:55;;;;;;;3.60;0.73;;;12.90;80.40;;;;;;4980960;28;20074;-86
2022/04/13 02:50:23;;;;;;;2.58;0.57;;;12.90;80.40;;;;;;4996928;28;20042;-86
2022/04/13 02:52:54;;;;;;;1.45;0.57;;;12.90;80.20;;;;;;4991279;28;20529;-81
2022/04/13 02:55:23;;;;;;;3.33;0.60;;;13.00;80.00;;;;;;4962284;28;20108;-80
2022/04/13 02:57:50;;;;;;;2.28;0.73;;;13.10;79.80;;;;;;4960650;28;20048;-81
2022/04/13 03:00:18;;;;;;;1.40;0.57;;;13.10;79.60;;;;;;4989752;28;20046;-80
2022/04/13 03:02:47;;;;;;;2.00;1.08;;;13.10;79.60;;;;;;4960779;28;20096;-80
2022/04/13 03:05:14;;;;;;;2.28;0.73;;;13.10;79.70;;;;;;4965361;28;20518;-80
2022/04/13 03:07:42;;;;;;;3.35;0.75;;;13.10;79.70;;;;;;4988996;28;20542;-81
2022/04/13 03:10:09;;;;;;;1.95;0.70;;;13.20;79.80;;;;;;4993048;28;20050;-81
2022/04/13 03:12:36;;;;;;;2.60;0.80;;;13.20;79.80;;;;;;4959953;28;20046;-80
2022/04/13 03:15:09;;;;;;;4.82;0.77;;;13.20;79.60;;;;;;4975532;28;20081;-81
2022/04/13 03:17:37;;;;;;;1.98;0.70;;;13.20;79.60;;;;;;4962647;28;20046;-80
2022/04/13 03:20:04;;;;;;;2.10;0.70;;;13.20;79.60;;;;;;4957534;28;20109;-81
2022/04/13 03:22:31;;;;;;;1.98;1.17;;;13.20;79.70;;;;;;4962509;28;20043;-80
2022/04/13 03:25:02;;;;;;;2.20;1.00;;;13.20;79.70;;;;;;4968023;28;20076;-81
2022/04/13 03:27:29;;;;;;;3.55;0.90;;;13.20;79.70;;;;;;4981108;28;20142;-81
2022/04/13 03:29:56;;;;;;;3.38;0.98;;;13.20;79.70;;;;;;4973098;28;20137;-81
2022/04/13 03:32:23;;;;;;;3.88;0.85;;;13.20;79.60;;;;;;4973761;28;20169;-81
2022/04/13 03:34:50;;;;;;;4.00;0.95;;;13.20;79.50;;;;;;4967617;28;20050;-81
2022/04/13 03:37:18;;;;;;;4.60;0.98;;;13.20;79.40;;;;;;4972070;28;20038;-81
2022/04/13 03:39:46;;;;;;;2.63;1.00;;;13.20;79.40;;;;;;4955360;28;20050;-81
2022/04/13 03:42:13;;;;;;;2.67;0.75;;;13.20;79.50;;;;;;4974250;28;20051;-81
2022/04/13 03:44:40;;;;;;;3.35;1.25;;;13.20;79.60;;;;;;4970942;28;20046;-81
2022/04/13 03:47:07;;;;;;;1.85;0.85;;;13.20;79.80;;;;;;4962717;28;20047;-81
2022/04/13 03:49:34;;;;;;;2.55;1.10;;;13.10;80.00;;;;;;4982619;28;20133;-81
2022/04/13 03:52:01;;;;;;;2.15;0.80;;;13.00;80.10;;;;;;4994835;28;20058;-82
2022/04/13 03:54:28;;;;;;;1.45;0.73;;;13.00;80.30;;;;;;4998009;28;20061;-81
2022/04/13 03:56:55;;;;;;;2.22;0.80;;;12.90;80.40;;;;;;5015037;28;20093;-80
2022/04/13 03:59:23;;;;;;;2.88;0.98;;;12.90;81.20;;;;;;4999034;28;20045;-81
2022/04/13 04:01:50;;;;;;;3.53;1.20;;;12.80;80.70;;;;;;5015277;28;20049;-81
2022/04/13 04:04:17;;;;;;;2.47;1.23;;;12.80;80.90;;;;;;5031382;28;20056;-81
2022/04/13 04:06:47;;;;;;;1.73;0.77;;;12.70;81.10;;;;;;4999322;28;20058;-81
2022/04/13 04:09:14;;;;;;;3.53;0.88;;;12.60;81.20;;;;;;4998894;28;20075;-81
2022/04/13 04:11:41;;;;;;;3.17;1.23;;;12.60;81.30;;;;;;5011580;28;20137;-81
2022/04/13 04:14:08;;;;;;;1.98;0.80;;;12.50;81.40;;;;;;5011232;28;20049;-81
2022/04/13 04:16:35;;;;;;;2.53;1.20;;;12.50;81.50;;;;;;4982455;28;20387;-81
2022/04/13 04:19:02;;;;;;;6.57;1.50;;;12.40;81.60;;;;;;5015019;28;20041;-81
2022/04/13 04:21:30;;;;;;;1.80;0.85;;;12.40;81.80;;;;;;5012963;28;20077;-81
2022/04/13 04:23:57;;;;;;;3.13;1.30;;;12.30;81.80;;;;;;5005750;28;20081;-81
2022/04/13 04:26:24;;;;;;;3.95;0.90;;;12.30;81.90;;;;;;5014714;28;20053;-81
2022/04/13 04:28:51;;;;;;;2.33;1.17;;;12.30;82.10;;;;;;4998521;28;20081;-81
2022/04/13 04:31:49;;;;;;;3.00;1.10;;;12.20;82.10;;;;;;4965304;28;20051;-81
2022/04/13 04:34:05;;;;;;;2.65;1.15;;;12.20;82.20;;;;;;5010960;28;20132;-80
2022/04/13 04:36:32;;;;;;;1.98;1.25;;;12.10;82.20;;;;;;4991087;28;20079;-81
2022/04/13 04:38:59;;;;;;;2.65;1.02;;;12.10;82.30;;;;;;4976006;28;20073;-80
2022/04/13 04:41:26;;;;;;;1.65;0.90;;;12.10;82.40;;;;;;4982019;28;20130;-81
2022/04/13 04:43:54;;;;;;;3.50;1.42;;;12.00;82.40;;;;;;5014479;28;20149;-81
2022/04/13 04:46:21;;;;;;;3.45;1.20;;;12.00;82.50;;;;;;5014344;28;20133;-80
2022/04/13 04:48:51;;;;;;;2.00;0.82;;;11.90;82.50;;;;;;5014170;28;20057;-81
2022/04/13 04:51:21;;;;;;;2.55;0.95;;;11.90;82.60;;;;;;4998825;28;20493;-81
2022/04/13 04:53:51;;;;;;;2.55;1.00;;;11.90;82.60;;;;;;5013798;28;20926;-81
2022/04/13 04:56:19;;;;;;;2.33;0.90;;;11.80;82.70;;;;;;4985615;28;20045;-81
2022/04/13 04:58:46;;;;;;;3.03;1.10;;;11.80;82.80;;;;;;5000395;28;20041;-81
2022/04/13 05:01:13;;;;;;;2.72;1.15;;;11.80;82.80;;;;;;4996215;28;20050;-82
2022/04/13 05:03:43;;;;;;;2.22;1.15;;;11.70;83.40;;;;;;4998308;28;20045;-81
2022/04/13 05:06:10;;;;;;;2.80;1.13;;;11.70;82.90;;;;;;5001419;28;20042;-81
2022/04/13 05:08:39;;;;;;;3.13;1.33;;;11.70;83.00;;;;;;4971032;28;20486;-81
2022/04/13 05:11:06;;;;;;;2.47;1.05;;;11.70;83.00;;;;;;5004215;28;20401;-80
2022/04/13 05:13:33;;;;;;;2.20;0.93;;;11.70;83.10;;;;;;4982335;28;20042;-81
2022/04/13 05:16:00;;;;;;;1.83;0.82;;;11.70;83.10;;;;;;4993019;28;20160;-80
2022/04/13 05:18:27;;;;;;;3.00;1.50;;;11.70;83.10;;;;;;4999305;28;20375;-81
2022/04/13 05:20:54;;;;;;;2.22;1.10;;;11.70;83.20;;;;;;5007242;28;20123;-81
2022/04/13 05:23:21;;;;;;;2.80;1.27;;;11.70;83.20;;;;;;5006484;28;20501;-81
2022/04/13 05:25:48;;;;;;;2.50;1.08;;;11.70;83.20;;;;;;4984100;28;20111;-81
2022/04/13 05:28:16;;;;;;;3.17;1.00;;;11.70;83.20;;;;;;4989981;28;20119;-81
2022/04/13 05:30:43;;;;;;;3.50;1.40;;;11.80;83.30;;;;;;4990030;28;20038;-81
2022/04/13 05:33:10;;;;;;;2.10;0.98;;;11.80;83.30;;;;;;5000642;28;20068;-80
2022/04/13 05:35:37;;;;;;;3.10;1.40;;;11.80;83.20;;;;;;4984433;28;20033;-81
2022/04/13 05:38:05;;;;;;;2.85;1.27;;;11.80;83.20;;;;;;5000332;28;20041;-81
2022/04/13 05:40:32;;;;;;;2.17;1.30;;;11.90;83.10;;;;;;4988820;28;20449;-81
2022/04/13 05:42:59;;;;;;;3.00;1.23;;;12.00;83.00;;;;;;4998651;28;20042;-81
2022/04/13 05:45:26;;;;;;;3.30;1.23;;;12.10;82.90;;;;;;4994527;28;20474;-81
2022/04/13 05:47:58;;;;;;;1.95;1.10;;;12.20;82.80;;;;;;4993223;28;20049;-80
2022/04/13 05:50:25;;;;;;;2.13;1.10;;;12.30;82.70;;;;;;4978840;28;20072;-80
2022/04/13 05:52:52;;;;;;;3.15;1.08;;;12.40;82.60;;;;;;5004098;28;20119;-81
2022/04/13 05:55:19;;;;;;;2.58;1.20;;;12.50;82.50;;;;;;4967421;28;20501;-81
2022/04/13 05:57:46;;;;;;;3.15;1.20;;;12.50;82.40;;;;;;4996613;28;20041;-81
2022/04/13 06:00:14;;;;;;;2.67;0.93;;;12.60;82.40;;;;;;4994580;28;20046;-80
2022/04/13 06:02:42;;;;;;;3.00;1.42;;;12.60;82.40;;;;;;4986866;28;20410;-82
2022/04/13 06:05:10;;;;;;;2.80;1.13;;;12.60;82.50;;;;;;4980315;28;20490;-82
2022/04/13 06:07:41;;;;;;;5.78;1.38;;;12.70;82.50;;;;;;4976299;28;20054;-82
2022/04/13 06:10:09;;;;;;;4.18;1.30;;;12.80;82.40;;;;;;4991931;28;20100;-81
2022/04/13 06:12:36;;;;;;;3.80;1.70;;;12.90;82.30;;;;;;4998648;28;20054;-83
2022/04/13 06:15:06;;;;;;;5.18;2.30;;;13.00;82.10;;;;;;4987235;28;20038;-82
2022/04/13 06:17:34;;;;;;;7.30;2.78;;;13.10;81.90;;;;;;5007991;28;20505;-83
2022/04/13 06:20:02;;;;;;;6.45;2.88;;;13.20;81.70;;;;;;4996542;28;20046;-83
2022/04/13 06:22:36;;;;;;;5.70;3.13;;;13.20;81.60;;;;;;5009138;28;20046;-83
2022/04/13 06:25:04;;;;;;;5.05;2.67;;;13.30;81.50;;;;;;4996311;28;20056;-83
2022/04/13 06:27:31;;;;;;;4.95;3.05;;;13.30;81.50;;;;;;5009874;28;20038;-83
2022/04/13 06:29:58;;;;;;;4.55;3.17;;;13.30;81.50;;;;;;5001951;28;20061;-83
2022/04/13 06:32:36;;;;;;;4.72;3.00;;;13.30;81.50;;;;;;5001665;28;20053;-82
2022/04/13 06:35:06;;;;;;;6.75;3.30;;;13.30;81.50;;;;;;4993481;28;20111;-84
2022/04/13 06:37:36;;;;;;;8.98;4.63;;;13.30;81.50;;;;;;4983423;28;20045;-83
2022/04/13 06:40:05;;;;;;;6.82;4.22;;;13.50;81.40;;;;;;4999244;28;20414;-83
2022/04/13 06:42:37;;;;;;;10.80;4.43;;;13.60;81.20;;;;;;4990258;28;20077;-82
2022/04/13 06:45:10;;;;;;;7.15;4.38;;;13.70;81.10;;;;;;4994536;28;20077;-83
2022/04/13 06:47:38;;;;;;;5.53;3.90;;;13.90;80.90;;;;;;4995239;28;20500;-83
2022/04/13 06:50:07;;;;;;;8.57;4.15;;;14.00;80.70;;;;;;5019782;28;20046;-83
2022/04/13 06:52:35;;;;;;;7.80;4.15;;;14.10;80.50;;;;;;4995505;28;20052;-83
2022/04/13 06:55:04;;;;;;;8.52;5.13;;;14.20;80.40;;;;;;5011930;28;20128;-82
2022/04/13 06:57:33;;;;;;;6.85;3.97;;;14.30;80.30;;;;;;4995802;28;20041;-83
2022/04/13 07:00:01;;;;;;;7.55;4.82;;;14.30;80.20;;;;;;4980426;28;20050;-83
2022/04/13 07:02:28;;;;;;;7.80;4.20;;;14.40;80.20;;;;;;4979674;28;20041;-83
2022/04/13 07:04:55;;;;;;;7.35;4.88;;;14.40;80.20;;;;;;4992287;28;20050;-83
2022/04/13 07:07:22;;;;;;;7.43;4.47;;;14.40;80.20;;;;;;4994020;28;20046;-83
2022/04/13 07:09:49;;;;;;;10.77;6.15;;;14.40;80.10;;;;;;4995660;28;20050;-83
2022/04/13 07:12:17;;;;;;;7.90;5.43;;;14.50;80.10;;;;;;4993984;28;20216;-83
2022/04/13 07:14:44;;;;;;;10.27;5.90;;;14.50;80.10;;;;;;5011171;28;20041;-83
2022/04/13 07:17:11;;;;;;;9.32;6.03;;;14.50;80.20;;;;;;5011474;28;20052;-83
2022/04/13 07:19:38;;;;;;;8.63;5.95;;;14.50;80.30;;;;;;5008297;28;20112;-83
2022/04/13 07:22:06;;;;;;;11.32;6.28;;;14.60;80.30;;;;;;5008574;28;20054;-83
2022/04/13 07:24:39;;;;;;;15.43;6.82;;;14.60;80.30;;;;;;5011503;28;20056;-83
2022/04/13 07:27:06;;;;;;;8.70;5.22;;;14.70;80.30;;;;;;4995674;28;20056;-83
2022/04/13 07:29:33;;;;;;;10.80;6.40;;;14.70;80.30;;;;;;4995618;28;20053;-83
2022/04/13 07:32:00;;;;;;;9.98;5.97;;;14.80;80.30;;;;;;4979227;28;20446;-83
2022/04/13 07:34:27;;;;;;;11.45;5.85;;;14.90;80.30;;;;;;4995098;28;20077;-83
2022/04/13 07:36:54;;;;;;;10.23;5.72;;;14.90;80.10;;;;;;4995087;28;20092;-83
2022/04/13 07:39:21;;;;;;;8.93;5.75;;;15.00;80.00;;;;;;5011274;28;20046;-83
2022/04/13 07:41:51;;;;;;;12.13;7.47;;;15.10;79.90;;;;;;5011859;28;20046;-83
2022/04/13 07:44:18;;;;;;;9.30;5.95;;;15.20;79.80;;;;;;5011179;28;20041;-83
2022/04/13 07:46:45;;;;;;;13.05;7.20;;;15.30;79.80;;;;;;4995557;28;20108;-78
2022/04/13 07:49:12;;;;;;;11.25;6.53;;;15.30;80.30;;;;;;5007216;28;20042;-81
2022/04/13 07:51:40;;;;;;;12.25;6.82;;;15.40;80.30;;;;;;5009950;28;20085;-82
2022/04/13 07:54:08;;;;;;;11.00;7.47;;;15.40;79.70;;;;;;4986362;28;20457;-83
2022/04/13 07:56:55;;;;;;;10.13;6.82;;;15.30;79.80;;;;;;4996247;28;20042;-83
2022/04/13 07:59:22;;;;;;;13.65;6.25;;;15.30;79.90;;;;;;4978551;28;20049;-84
2022/04/13 08:01:49;;;;;;;9.52;6.30;;;15.30;80.00;;;;;;4995152;28;20057;-83
2022/04/13 08:04:17;;;;;;;11.15;6.32;;;15.40;80.00;;;;;;5011526;28;20434;-83
2022/04/13 08:06:54;;;;;;;13.23;6.82;;;15.40;80.50;;;;;;4996490;28;20057;-84
2022/04/13 08:09:21;;;;;;;11.25;6.78;;;15.40;79.90;;;;;;4992529;28;20050;-84
2022/04/13 08:11:52;;;;;;;10.15;5.93;;;15.40;79.80;;;;;;5003849;28;20050;-83
2022/04/13 08:14:39;;;;;;;9.98;5.50;;;15.50;79.80;;;;;;4974754;28;20132;-83
2022/04/13 08:17:06;;;;;;;10.35;6.22;;;15.50;79.80;;;;;;4994868;28;20050;-82
2022/04/13 08:19:33;;;;;;;8.65;5.30;;;15.60;79.70;;;;;;4994881;28;20056;-81
2022/04/13 08:22:00;;;;;;;11.05;6.72;;;15.60;79.60;;;;;;4978784;28;20056;-81
2022/04/13 08:24:27;;;;;;;13.15;6.22;;;15.70;79.50;;;;;;4963984;28;20053;-81
2022/04/13 08:26:55;;;;;;;10.60;5.55;;;15.80;79.30;;;;;;4995502;28;20046;-81
2022/04/13 08:29:24;;;;;;;10.82;5.82;;;15.90;79.10;;;;;;4994642;28;20045;-80
2022/04/13 08:31:51;;;;;;;12.52;6.88;;;15.90;79.00;;;;;;4988281;28;20056;-81
2022/04/13 08:34:18;;;;;;;11.98;5.57;;;15.90;78.90;;;;;;4984832;28;20112;-80
2022/04/13 08:36:48;;;;;;;10.85;5.68;;;15.90;79.00;;;;;;4997280;28;20046;-80
2022/04/13 08:39:14;;;;;;;9.90;3.90;;;15.90;79.10;;;;;;4988481;28;20042;-82
2022/04/13 08:41:56;;;;;;;7.35;4.82;;;15.90;79.20;;;;;;4995047;28;20057;-82
2022/04/13 08:44:42;;;;;;;10.65;6.13;;;16.00;79.00;;;;;;4998583;28;20050;-82
2022/04/13 08:47:14;;;;;;;7.72;4.88;;;16.10;78.90;;;;;;4999751;28;20046;-83
2022/04/13 08:49:45;;;;;;;10.30;6.07;;;16.20;78.70;;;;;;4996907;28;20053;-83
2022/04/13 08:52:14;;;;;;;10.63;6.35;;;16.30;78.50;;;;;;4994590;28;20410;-82
2022/04/13 08:54:55;;;;;;;7.78;4.75;;;16.40;78.30;;;;;;4984024;28;20113;-80
2022/04/13 08:57:24;;;;;;;8.10;4.88;;;16.60;78.10;;;;;;4997402;28;20042;-83
2022/04/13 09:00:08;;;;;;;8.98;6.03;;;16.60;77.90;;;;;;5006328;28;20045;-83
2022/04/13 09:02:50;;;;;;;11.10;5.50;;;16.70;77.70;;;;;;5012765;28;20041;-81
2022/04/13 09:05:32;;;;;;;8.98;4.60;;;16.80;77.70;;;;;;4986352;28;20108;-80
2022/04/13 09:08:22;;;;;;;8.10;4.13;;;16.90;77.50;;;;;;5015260;28;20104;-83
2022/04/13 09:10:54;;;;;;;6.75;3.90;;;17.00;77.20;;;;;;4998540;28;20401;-85
2022/04/13 09:13:24;;;;;;;7.63;3.90;;;17.20;76.90;;;;;;4997867;28;20046;-84
2022/04/13 09:15:53;;;;;;;7.82;3.50;;;17.30;76.50;;;;;;4997543;28;20038;-83
2022/04/13 09:18:20;;;;;;;6.57;3.50;;;17.40;76.20;;;;;;4997518;28;20521;-83
2022/04/13 09:20:47;;;;;;;4.45;2.88;;;17.40;76.00;;;;;;4997226;28;20041;-83
2022/04/13 09:23:15;;;;;;;4.25;2.25;;;17.50;75.90;;;;;;4973369;28;20051;-83
2022/04/13 09:25:43;;;;;;;4.95;2.20;;;17.70;75.50;;;;;;4982082;28;20058;-84
2022/04/13 09:28:11;;;;;;;3.20;1.77;;;17.90;74.90;;;;;;5002251;28;20057;-81
2022/04/13 09:30:38;;;;;;;4.38;1.70;;;18.00;73.90;;;;;;4996958;28;20056;-82
2022/04/13 09:33:05;;;;;;;4.15;1.73;;;18.20;73.70;;;;;;4994181;28;20044;-83
2022/04/13 09:35:34;;;;;;;3.47;1.70;;;18.30;73.10;;;;;;4990862;28;20125;-82
2022/04/13 09:38:07;;;;;;;2.92;1.35;;;18.50;72.50;;;;;;4996054;28;20459;-83
2022/04/13 09:40:39;;;;;;;4.60;1.95;;;18.60;71.90;;;;;;4997159;28;20502;-84
2022/04/13 09:43:15;;;;;;;3.65;1.70;;;18.70;71.50;;;;;;4997953;28;20052;-82
2022/04/13 09:45:43;;;;;;;4.80;1.52;;;18.90;71.30;;;;;;4983220;28;20445;-83
2022/04/13 09:48:15;;;;;;;2.78;1.30;;;19.00;71.00;;;;;;4997149;28;20050;-83
2022/04/13 09:50:45;;;;;;;3.20;1.40;;;19.00;70.70;;;;;;4996910;28;20115;-83
2022/04/13 09:53:14;;;;;;;4.28;1.58;;;19.00;70.60;;;;;;4997208;28;20050;-82
2022/04/13 09:55:48;;;;;;;3.92;1.55;;;19.10;70.50;;;;;;4997304;28;20045;-82
2022/04/13 09:58:18;;;;;;;3.47;1.48;;;19.20;70.20;;;;;;4984159;28;20049;-86
2022/04/13 10:00:47;;;;;;;3.92;1.77;;;19.20;70.00;;;;;;4996239;28;20096;-86
2022/04/13 10:03:17;;;;;;;3.28;1.83;;;19.10;69.90;;;;;;4980515;28;20084;-86
2022/04/13 10:05:52;;;;;;;5.03;1.65;;;19.00;70.10;;;;;;4996339;28;20501;-86
2022/04/13 10:08:27;;;;;;;5.70;2.28;;;19.00;70.20;;;;;;4983924;28;20056;-86
2022/04/13 10:10:56;;;;;;;4.32;2.03;;;18.90;70.30;;;;;;4994021;28;20054;-86
2022/04/13 10:13:36;;;;;;;5.13;2.38;;;18.90;70.40;;;;;;4984918;28;20042;-86
2022/04/13 10:16:08;;;;;;;4.55;1.92;;;18.90;70.50;;;;;;5009706;28;20045;-85
2022/04/13 10:18:54;;;;;;;6.00;2.60;;;18.70;70.70;;;;;;4991771;28;20038;-86
2022/04/13 10:21:41;;;;;;;5.95;3.50;;;18.60;70.80;;;;;;4996859;28;20045;-86
2022/04/13 10:24:29;;;;;;;6.50;3.08;;;18.40;71.10;;;;;;5004729;28;20050;-85
2022/04/13 10:27:09;;;;;;;5.45;3.10;;;18.20;71.40;;;;;;4989912;28;20049;-86
2022/04/13 10:29:39;;;;;;;5.05;2.55;;;18.10;71.60;;;;;;4997569;28;20072;-86
2022/04/13 10:32:10;;;;;;;8.25;3.00;;;18.10;71.80;;;;;;5003956;28;20152;-87
2022/04/13 10:34:44;;;;;;;5.72;3.03;;;18.00;71.70;;;;;;5012331;28;20510;-86
2022/04/13 10:37:13;;;;;;;6.95;2.65;;;18.10;71.90;;;;;;5004351;28;20046;-86
2022/04/13 10:39:41;;;;;;;5.43;2.60;;;18.10;71.80;;;;;;4983475;28;20030;-86
2022/04/13 10:42:10;;;;;;;5.32;2.60;;;18.10;71.80;;;;;;4994539;28;20064;-87
2022/04/13 10:44:46;;;;;;;3.72;2.20;;;18.00;71.90;;;;;;5005974;28;20050;-85
2022/04/13 10:47:18;;;;;;;5.97;1.92;;;18.00;71.70;;;;;;4997110;28;20100;-84
2022/04/13 10:50:00;;;;;;;3.35;1.52;;;18.00;71.70;;;;;;4970726;28;20049;-84
2022/04/13 10:52:40;;;;;;;3.70;1.60;;;17.90;71.80;;;;;;4988698;28;20057;-85
2022/04/13 10:55:11;;;;;;;5.15;1.92;;;17.80;71.60;;;;;;4993157;28;20058;-84
2022/04/13 10:57:41;;;;;;;3.35;1.77;;;17.70;71.70;;;;;;4999246;28;20042;-84
2022/04/13 11:00:12;;;;;;;4.63;1.73;;;17.70;71.90;;;;;;4998062;28;20042;-83
2022/04/13 11:02:54;;;;;;;4.38;1.92;;;17.60;71.90;;;;;;4993247;28;20088;-85
2022/04/13 11:05:22;;;;;;;;;;;17.60;71.90;;;;;;4995999;28;20498;-84
2022/04/13 11:07:55;;;;;;;4.38;1.90;;;17.50;72.00;;;;;;4995440;28;19922;-84
2022/04/13 11:10:23;;;;;;;3.53;2.00;;;17.50;72.20;;;;;;4990344;28;20042;-84
2022/04/13 11:12:51;;;;;;;7.20;2.28;;;17.50;72.10;;;;;;4988908;28;20043;-83
2022/04/13 11:15:37;;;;;;;3.67;2.17;;;17.40;72.10;;;;;;4974714;28;20042;-83
2022/04/13 11:18:12;;;;;;;4.57;2.40;;;17.50;72.10;;;;;;4974970;28;20077;-84
2022/04/13 11:21:06;;;;;;;5.60;2.17;;;17.50;72.00;;;;;;4975729;28;20045;-83
2022/04/13 11:23:49;;;;;;;4.85;2.53;;;17.60;72.00;;;;;;4972849;28;20046;-85
2022/04/13 11:26:34;;;;;;;4.20;2.15;;;17.60;71.90;;;;;;4995351;28;20042;-84
2022/04/13 11:29:13;;;;;;;5.72;2.50;;;17.60;71.90;;;;;;5001481;28;20046;-83
2022/04/13 11:31:59;;;;;;;4.20;2.58;;;17.60;72.00;;;;;;4975693;28;20644;-83
2022/04/13 11:34:35;;;;;;;5.07;2.10;;;17.70;72.10;;;;;;4994173;28;20124;-84
2022/04/13 11:37:05;;;;;;;5.13;2.13;;;17.70;72.20;;;;;;4977070;28;20053;-83
2022/04/13 11:40:04;;;;;;;5.40;2.30;;;17.70;72.10;;;;;;4992317;28;20470;-84
2022/04/13 11:42:34;;;;;;;5.75;2.50;;;17.70;72.00;;;;;;5010857;28;20483;-83
2022/04/13 11:45:05;;;;;;;4.53;2.30;;;17.60;72.30;;;;;;4995345;28;20053;-89
2022/04/13 11:47:43;;;;;;;5.28;2.90;;;17.50;72.40;;;;;;5000279;28;20042;-89
2022/04/13 11:50:14;;;;;;;6.88;2.53;;;17.50;72.50;;;;;;4979692;28;20118;-88
2022/04/13 11:52:48;;;;;;;6.90;2.33;;;17.40;72.50;;;;;;4995236;28;20054;-88
2022/04/13 11:55:42;;;;;;;5.05;2.33;;;17.40;72.60;;;;;;4985924;28;20050;-85
2022/04/13 11:58:22;;;;;;;6.38;2.58;;;17.40;72.60;;;;;;4985570;28;20050;-86
2022/04/13 12:01:08;;;;;;;5.53;2.42;;;17.30;72.70;;;;;;5008826;28;20129;-87
2022/04/13 12:03:39;;;;;;;6.25;2.70;;;17.30;72.80;;;;;;5003592;28;20503;-81
2022/04/13 12:06:19;;;;;;;5.10;2.45;;;17.20;72.90;;;;;;4998569;28;20054;-81
2022/04/13 12:08:52;;;;;;;5.20;2.40;;;17.20;73.00;;;;;;4995033;28;20113;-82
2022/04/13 12:11:22;;;;;;;5.45;2.70;;;17.20;73.20;;;;;;4979734;28;20061;-85
2022/04/13 12:13:54;;;;;;;6.57;2.80;;;17.10;73.30;;;;;;4996392;28;20453;-81
2022/04/13 12:16:28;;;;;;;5.38;2.40;;;17.10;73.40;;;;;;4985708;28;20068;-85
2022/04/13 12:19:01;;;;;;;4.88;2.40;;;17.10;73.60;;;;;;4986376;28;20068;-79
2022/04/13 12:21:32;;;;;;;;;;;17.00;73.60;;;;;;5000843;28;20033;-86
2022/04/13 12:24:06;;;;;;;5.10;2.20;;;17.00;73.70;;;;;;5013955;28;19960;-84
2022/04/13 12:26:35;;;;;;;4.50;2.40;;;17.00;73.80;;;;;;4980304;28;20042;-85
2022/04/13 12:29:12;;;;;;;8.00;3.50;;;17.00;74.00;;;;;;4994572;28;20050;-84
2022/04/13 12:31:54;;;;;;;6.22;3.05;;;17.00;73.90;;;;;;4996368;28;20074;-84
2022/04/13 12:34:26;;;;;;;6.33;3.13;;;17.00;74.00;;;;;;4981313;28;20046;-85
2022/04/13 12:36:59;;;;;;;4.65;2.17;;;17.00;74.10;;;;;;4995982;28;20082;-84
2022/04/13 12:39:30;;;;;;;4.20;1.80;;;17.00;74.20;;;;;;4997884;28;20065;-84
2022/04/13 12:41:58;;;;;;;3.20;1.60;;;17.00;74.20;;;;;;4992100;28;20057;-84
2022/04/13 12:44:25;;;;;;;5.93;2.10;;;17.10;74.30;;;;;;4991249;28;20686;-84
2022/04/13 12:47:12;;;;;;;4.10;1.90;;;17.10;74.20;;;;;;4983889;28;20074;-85
2022/04/13 12:49:39;;;;;;;5.60;2.20;;;17.10;74.10;;;;;;4995877;28;20037;-83
2022/04/13 12:52:07;;;;;;;5.13;2.45;;;17.10;74.30;;;;;;5011362;28;20092;-82
2022/04/13 12:54:40;;;;;;;6.75;2.08;;;17.10;74.40;;;;;;5021446;28;20506;-84
2022/04/13 12:57:07;;;;;;;;;;;17.00;74.50;;;;;;4995996;28;20038;-85
2022/04/13 12:59:38;;;;;;;3.05;1.48;;;16.90;74.70;;;;;;5009608;28;19928;-84
2022/04/13 13:02:05;;;;;;;5.43;1.90;;;16.90;75.00;;;;;;4994501;28;20050;-82